Time;durP1;ratioP1;P1;durP2;ratioP2;P2;SDS_P1;SDS_P2;PMS_P1;PMS_P2;Temp;Humidity;BMP_temperature;BMP_pressure;BME280_temperature;BME280_humidity;BME280_pressure;Samples;Min_cycle;Max_cycle;Signal;HPM_P1;HPM_P2
2023/09/28 00:01:31;;;;;;;3.67;2.70;;;17.00;99.90;;;;;;5081459;28;20024;-63
2023/09/28 00:03:57;;;;;;;4.78;2.42;;;17.10;99.90;;;;;;5086174;28;20020;-66
2023/09/28 00:06:22;;;;;;;3.85;2.67;;;17.10;99.90;;;;;;5085551;28;20478;-63
2023/09/28 00:08:48;;;;;;;5.10;2.60;;;17.10;99.90;;;;;;5090030;28;20026;-63
2023/09/28 00:11:13;;;;;;;5.63;2.47;;;17.10;99.90;;;;;;5089160;28;20024;-64
2023/09/28 00:13:39;;;;;;;8.70;2.67;;;17.00;99.90;;;;;;5088938;28;20068;-64
2023/09/28 00:16:04;;;;;;;4.18;2.70;;;17.10;99.90;;;;;;5089131;28;20409;-66
2023/09/28 00:18:30;;;;;;;6.43;2.65;;;17.00;99.90;;;;;;5081992;28;20821;-64
2023/09/28 00:20:56;;;;;;;8.95;3.05;;;16.90;99.90;;;;;;5085627;28;20032;-67
2023/09/28 00:23:21;;;;;;;7.43;3.13;;;16.90;99.90;;;;;;5083674;28;20101;-65
2023/09/28 00:25:47;;;;;;;3.88;2.22;;;16.90;99.90;;;;;;5090040;28;20095;-63
2023/09/28 00:28:13;;;;;;;3.75;2.58;;;17.00;99.90;;;;;;5090805;28;20024;-63
2023/09/28 00:30:38;;;;;;;4.13;2.97;;;16.90;99.90;;;;;;5085922;28;20032;-65
2023/09/28 00:33:04;;;;;;;6.70;3.25;;;17.00;99.90;;;;;;5085315;28;20058;-65
2023/09/28 00:35:30;;;;;;;3.78;2.70;;;17.00;99.90;;;;;;5089872;28;20050;-66
2023/09/28 00:37:55;;;;;;;5.28;3.13;;;17.00;99.90;;;;;;5069206;28;20021;-64
2023/09/28 00:42:51;;;;;;;7.57;2.45;;;17.00;99.90;;;;;;5086428;28;20028;-66
2023/09/28 00:45:19;;;;;;;3.70;2.90;;;17.10;99.90;;;;;;5087778;28;20028;-65
2023/09/28 00:47:48;;;;;;;5.28;2.10;;;17.10;99.90;;;;;;5087189;28;20257;-65
2023/09/28 00:50:15;;;;;;;4.38;2.67;;;17.10;99.90;;;;;;5086044;28;20380;-64
2023/09/28 00:52:43;;;;;;;7.65;2.50;;;17.20;99.90;;;;;;5084839;28;20036;-63
2023/09/28 00:55:10;;;;;;;9.40;2.90;;;17.10;99.90;;;;;;5087881;28;20499;-65
2023/09/28 00:57:38;;;;;;;5.50;2.53;;;17.20;99.90;;;;;;5086029;28;20052;-63
2023/09/28 01:00:08;;;;;;;4.22;2.83;;;17.10;99.90;;;;;;5087564;28;20022;-64
2023/09/28 01:02:34;;;;;;;4.70;2.65;;;17.10;99.90;;;;;;5084146;28;20028;-63
2023/09/28 01:05:04;;;;;;;7.25;2.85;;;17.10;99.90;;;;;;5088858;28;20093;-65
2023/09/28 01:07:30;;;;;;;3.10;2.50;;;17.00;99.90;;;;;;5088774;28;20513;-66
2023/09/28 01:09:57;;;;;;;7.78;3.05;;;16.90;99.90;;;;;;5085027;28;20144;-66
2023/09/28 01:12:22;;;;;;;3.53;2.53;;;16.80;99.90;;;;;;5084207;28;20032;-61
2023/09/28 01:14:49;;;;;;;8.02;2.50;;;16.80;99.90;;;;;;5084677;28;20028;-65
2023/09/28 01:17:16;;;;;;;4.30;3.05;;;16.70;99.90;;;;;;5079864;28;20029;-65
2023/09/28 01:19:42;;;;;;;4.35;2.72;;;16.60;99.90;;;;;;5082863;28;20032;-64
2023/09/28 01:22:13;;;;;;;5.32;3.28;;;16.60;99.90;;;;;;5084743;28;20028;-65
2023/09/28 01:24:39;;;;;;;6.43;3.08;;;16.60;99.90;;;;;;5067728;28;20033;-64
2023/09/28 01:27:06;;;;;;;3.88;2.70;;;16.60;99.90;;;;;;5087196;28;20496;-65
2023/09/28 01:29:32;;;;;;;3.63;2.72;;;16.70;99.90;;;;;;5085724;28;20028;-64
2023/09/28 01:31:57;;;;;;;6.63;2.80;;;16.60;99.90;;;;;;5093269;28;20050;-64
2023/09/28 01:34:23;;;;;;;6.03;2.50;;;16.70;99.90;;;;;;5092810;28;20073;-62
2023/09/28 01:36:49;;;;;;;4.88;2.80;;;16.70;99.90;;;;;;5088550;28;20119;-65
2023/09/28 01:39:15;;;;;;;5.88;2.67;;;16.70;99.90;;;;;;5086883;28;20565;-64
2023/09/28 01:41:42;;;;;;;5.55;3.10;;;16.70;99.90;;;;;;5069968;28;20032;-64
2023/09/28 01:44:08;;;;;;;7.95;3.10;;;16.70;99.90;;;;;;5089716;28;20401;-65
2023/09/28 01:46:34;;;;;;;3.17;2.60;;;16.70;99.90;;;;;;5091142;28;20028;-65
2023/09/28 01:48:59;;;;;;;4.35;2.97;;;16.70;99.90;;;;;;5090350;28;20115;-65
2023/09/28 01:51:25;;;;;;;8.05;3.25;;;16.70;99.90;;;;;;5089010;28;20519;-66
2023/09/28 01:53:50;;;;;;;3.85;2.83;;;16.60;99.90;;;;;;5089080;28;20107;-65
2023/09/28 01:56:18;;;;;;;6.40;2.55;;;16.60;99.90;;;;;;5086584;28;20043;-64
2023/09/28 01:58:44;;;;;;;5.40;2.67;;;16.60;99.90;;;;;;5088589;28;20024;-66
2023/09/28 02:01:19;;;;;;;4.93;2.72;;;16.60;99.90;;;;;;5088814;28;20020;-65
2023/09/28 02:03:45;;;;;;;3.65;2.75;;;16.50;99.90;;;;;;5088307;28;20497;-64
2023/09/28 02:06:11;;;;;;;5.07;2.90;;;16.50;99.90;;;;;;5089514;28;20024;-62
2023/09/28 02:08:36;;;;;;;3.90;2.70;;;16.40;99.90;;;;;;5090619;28;20028;-63
2023/09/28 02:11:03;;;;;;;6.95;3.13;;;16.40;99.90;;;;;;5088078;28;20533;-65
2023/09/28 02:13:28;;;;;;;3.40;2.80;;;16.40;99.90;;;;;;5090249;28;20030;-65
2023/09/28 02:15:54;;;;;;;7.10;2.83;;;16.40;99.90;;;;;;5091260;28;20405;-64
2023/09/28 02:18:19;;;;;;;4.03;2.60;;;16.30;99.90;;;;;;5087027;28;20020;-64
2023/09/28 02:20:45;;;;;;;4.22;2.88;;;16.30;99.90;;;;;;5087753;28;20040;-62
2023/09/28 02:23:10;;;;;;;8.05;3.17;;;16.20;99.90;;;;;;5089525;28;20485;-64
2023/09/28 02:25:36;;;;;;;5.65;2.72;;;16.20;99.90;;;;;;5087929;28;20097;-64
2023/09/28 02:28:02;;;;;;;4.10;2.60;;;16.20;99.90;;;;;;5089780;28;20017;-65
2023/09/28 02:30:27;;;;;;;5.47;3.45;;;16.30;99.90;;;;;;5089889;28;20106;-63
2023/09/28 02:32:56;;;;;;;6.50;2.88;;;16.30;99.90;;;;;;5090359;28;20044;-63
2023/09/28 02:35:21;;;;;;;9.23;3.78;;;16.30;99.90;;;;;;5090774;28;20012;-65
2023/09/28 02:37:49;;;;;;;7.70;3.08;;;16.20;99.90;;;;;;5092745;28;20136;-64
2023/09/28 02:40:17;;;;;;;9.68;3.00;;;16.30;99.90;;;;;;5091203;28;20081;-64
2023/09/28 02:42:43;;;;;;;4.55;2.25;;;16.30;99.90;;;;;;5093145;28;20054;-64
2023/09/28 02:45:12;;;;;;;6.47;3.28;;;16.30;99.90;;;;;;5090309;28;20024;-65
2023/09/28 02:47:43;;;;;;;4.93;3.00;;;16.30;99.90;;;;;;5091822;28;20024;-65
2023/09/28 02:50:10;;;;;;;5.88;3.28;;;16.30;99.90;;;;;;5074416;28;20477;-64
2023/09/28 02:52:40;;;;;;;3.17;2.55;;;16.30;99.90;;;;;;5088801;28;20028;-64
2023/09/28 02:55:08;;;;;;;5.50;3.10;;;16.30;99.90;;;;;;5090886;28;21056;-66
2023/09/28 02:57:34;;;;;;;4.30;2.60;;;16.40;99.90;;;;;;5093384;28;20492;-65
2023/09/28 03:00:01;;;;;;;4.18;2.67;;;16.40;99.90;;;;;;5092783;28;20069;-64
2023/09/28 03:02:26;;;;;;;3.03;2.55;;;16.40;99.90;;;;;;5092512;28;20028;-64
2023/09/28 03:04:52;;;;;;;4.25;2.85;;;16.30;99.90;;;;;;5089881;28;20032;-64
2023/09/28 03:07:18;;;;;;;4.47;3.28;;;16.40;99.90;;;;;;5088141;28;20107;-64
2023/09/28 03:09:44;;;;;;;5.38;2.45;;;16.30;99.90;;;;;;5090666;28;20103;-65
2023/09/28 03:12:10;;;;;;;5.00;2.90;;;16.30;99.90;;;;;;5084159;28;20027;-65
2023/09/28 03:14:37;;;;;;;4.97;3.28;;;16.20;99.90;;;;;;5072491;28;20505;-65
2023/09/28 03:17:03;;;;;;;2.97;2.47;;;16.30;99.90;;;;;;5087892;28;20027;-64
2023/09/28 03:19:28;;;;;;;5.32;2.65;;;16.20;99.90;;;;;;5068974;28;20528;-64
2023/09/28 03:21:54;;;;;;;4.53;3.00;;;16.20;99.90;;;;;;5069536;28;20020;-64
2023/09/28 03:24:19;;;;;;;4.05;2.47;;;16.10;99.90;;;;;;5091657;28;20469;-64
2023/09/28 03:26:45;;;;;;;3.90;2.90;;;16.00;99.90;;;;;;5089447;28;20035;-63
2023/09/28 03:29:11;;;;;;;5.82;3.10;;;16.00;99.90;;;;;;5086535;28;20016;-64
2023/09/28 03:31:36;;;;;;;6.00;2.80;;;15.90;99.90;;;;;;5090257;28;20040;-66
2023/09/28 03:34:02;;;;;;;3.72;2.58;;;15.80;99.90;;;;;;5091127;28;20753;-66
2023/09/28 03:36:30;;;;;;;5.30;2.88;;;15.70;99.90;;;;;;5091036;28;20036;-64
2023/09/28 03:38:57;;;;;;;5.80;2.88;;;15.60;99.90;;;;;;5098030;28;20019;-64
2023/09/28 03:41:23;;;;;;;3.35;2.63;;;15.50;99.90;;;;;;5087728;28;20509;-64
2023/09/28 03:43:48;;;;;;;7.30;3.42;;;15.40;99.90;;;;;;5097726;28;20059;-64
2023/09/28 03:46:19;;;;;;;4.53;3.08;;;15.30;99.90;;;;;;5087121;28;20028;-63
2023/09/28 03:48:45;;;;;;;5.40;3.30;;;15.30;99.90;;;;;;5087930;28;20098;-65
2023/09/28 03:51:11;;;;;;;9.07;3.35;;;15.20;99.90;;;;;;5086864;28;20633;-64
2023/09/28 03:53:40;;;;;;;4.45;3.03;;;15.20;99.90;;;;;;5089480;28;20025;-64
2023/09/28 03:56:06;;;;;;;5.70;3.08;;;15.10;99.90;;;;;;5085547;28;20092;-64
2023/09/28 03:58:32;;;;;;;3.95;3.20;;;15.10;99.90;;;;;;5093052;28;20036;-65
2023/09/28 04:00:58;;;;;;;9.05;3.33;;;15.10;99.90;;;;;;5087936;28;20024;-65
2023/09/28 04:03:24;;;;;;;3.78;3.08;;;15.00;99.90;;;;;;5092783;28;20405;-66
2023/09/28 04:05:50;;;;;;;3.45;3.03;;;15.00;99.90;;;;;;5087337;28;20035;-65
2023/09/28 04:08:15;;;;;;;4.57;3.58;;;15.00;99.90;;;;;;5088576;28;20032;-64
2023/09/28 04:10:41;;;;;;;4.28;2.92;;;14.90;99.90;;;;;;5089780;28;20035;-66
2023/09/28 04:13:07;;;;;;;6.22;3.47;;;14.90;99.90;;;;;;5082517;28;20024;-64
2023/09/28 04:15:33;;;;;;;4.22;3.28;;;14.90;99.90;;;;;;5068758;28;20028;-64
2023/09/28 04:17:58;;;;;;;4.88;3.88;;;14.90;99.90;;;;;;5053014;28;20047;-66
2023/09/28 04:20:24;;;;;;;5.25;2.88;;;14.90;99.90;;;;;;5069648;28;20519;-59
2023/09/28 04:22:50;;;;;;;4.93;3.08;;;14.80;99.90;;;;;;5087182;28;20032;-62
2023/09/28 04:25:16;;;;;;;3.92;3.28;;;14.80;99.90;;;;;;5087163;28;20031;-64
2023/09/28 04:27:42;;;;;;;7.38;3.55;;;14.80;99.90;;;;;;5086365;28;20024;-65
2023/09/28 04:30:08;;;;;;;5.38;3.10;;;14.80;99.90;;;;;;5083932;28;20035;-65
2023/09/28 04:32:35;;;;;;;4.22;3.17;;;14.70;99.90;;;;;;5086525;28;20392;-65
2023/09/28 04:35:05;;;;;;;7.50;4.03;;;14.70;99.90;;;;;;5094881;28;20453;-65
2023/09/28 04:37:31;;;;;;;4.53;3.17;;;14.60;99.90;;;;;;5084975;28;20130;-64
2023/09/28 04:39:57;;;;;;;4.72;3.30;;;14.60;99.90;;;;;;5089036;28;20095;-66
2023/09/28 04:42:23;;;;;;;6.32;3.28;;;14.60;99.90;;;;;;5088383;28;20032;-62
2023/09/28 04:44:49;;;;;;;6.15;3.22;;;14.60;99.90;;;;;;5070040;28;20103;-64
2023/09/28 04:47:15;;;;;;;6.97;3.47;;;14.60;99.90;;;;;;5084670;28;20035;-65
2023/09/28 04:49:41;;;;;;;5.88;3.65;;;14.60;99.90;;;;;;5093934;28;20036;-64
2023/09/28 04:52:07;;;;;;;9.52;3.58;;;14.60;99.90;;;;;;5088890;28;20074;-66
2023/09/28 04:54:33;;;;;;;5.72;3.28;;;14.60;99.90;;;;;;5086443;28;20124;-65
2023/09/28 04:56:59;;;;;;;5.05;3.45;;;14.50;99.90;;;;;;5084631;28;20027;-65
2023/09/28 04:59:24;;;;;;;7.25;3.47;;;14.50;99.90;;;;;;5087037;28;20035;-64
2023/09/28 05:01:50;;;;;;;4.95;3.35;;;14.50;99.90;;;;;;5089221;28;20033;-64
2023/09/28 05:04:16;;;;;;;6.78;3.60;;;14.40;99.90;;;;;;5094029;28;20477;-62
2023/09/28 05:06:42;;;;;;;4.40;3.10;;;14.40;99.90;;;;;;5088370;28;20028;-64
2023/09/28 05:09:08;;;;;;;8.80;3.38;;;14.30;99.90;;;;;;5096022;28;20090;-64
2023/09/28 05:11:34;;;;;;;5.68;3.47;;;14.30;99.90;;;;;;5090982;28;20036;-64
2023/09/28 05:14:00;;;;;;;6.75;3.60;;;14.30;99.90;;;;;;5087203;28;20554;-64
2023/09/28 05:16:26;;;;;;;6.07;3.92;;;14.40;99.90;;;;;;5095997;28;20040;-58
2023/09/28 05:18:51;;;;;;;3.47;3.15;;;14.50;99.90;;;;;;5095931;28;20031;-64
2023/09/28 05:21:17;;;;;;;5.40;3.65;;;14.50;99.90;;;;;;5071380;28;20036;-65
2023/09/28 05:23:43;;;;;;;5.75;3.53;;;14.50;99.90;;;;;;5094189;28;20678;-64
2023/09/28 05:26:08;;;;;;;6.38;3.85;;;14.40;99.90;;;;;;5095323;28;20024;-64
2023/09/28 05:28:34;;;;;;;4.82;3.67;;;14.40;99.90;;;;;;5069889;28;20029;-63
2023/09/28 05:30:59;;;;;;;5.45;3.22;;;14.30;99.90;;;;;;5089148;28;20504;-65
2023/09/28 05:33:25;;;;;;;6.30;3.58;;;14.30;99.90;;;;;;5096399;28;20035;-64
2023/09/28 05:35:50;;;;;;;4.32;3.13;;;14.30;99.90;;;;;;5102864;28;20020;-64
2023/09/28 05:38:16;;;;;;;12.45;3.88;;;14.30;99.90;;;;;;5094014;28;20043;-64
2023/09/28 05:40:42;;;;;;;4.57;3.13;;;14.30;99.90;;;;;;5094480;28;20024;-65
2023/09/28 05:43:07;;;;;;;5.75;4.07;;;14.30;99.90;;;;;;5090808;28;20063;-64
2023/09/28 05:45:33;;;;;;;4.97;3.70;;;14.30;99.90;;;;;;5098864;28;20473;-64
2023/09/28 05:47:58;;;;;;;9.02;4.80;;;14.30;99.90;;;;;;5091177;28;20020;-64
2023/09/28 05:50:24;;;;;;;7.93;3.78;;;14.30;99.90;;;;;;5090530;28;20545;-61
2023/09/28 05:52:52;;;;;;;5.07;3.70;;;14.40;99.90;;;;;;5093667;28;20023;-62
2023/09/28 05:55:19;;;;;;;6.28;3.72;;;14.50;99.90;;;;;;5089012;28;20020;-64
2023/09/28 05:57:45;;;;;;;5.18;3.53;;;14.50;99.90;;;;;;5087264;28;20028;-65
2023/09/28 06:00:11;;;;;;;5.15;3.20;;;14.60;99.90;;;;;;5085726;28;20031;-65
2023/09/28 06:02:37;;;;;;;4.57;3.50;;;14.70;99.90;;;;;;5089205;28;20054;-65
2023/09/28 06:05:03;;;;;;;5.68;3.00;;;14.80;99.90;;;;;;5078459;28;20069;-66
2023/09/28 06:07:28;;;;;;;6.18;3.47;;;14.70;99.90;;;;;;5085744;28;20050;-64
2023/09/28 06:09:54;;;;;;;4.20;3.08;;;14.70;99.90;;;;;;5076980;28;20016;-63
2023/09/28 06:12:20;;;;;;;7.30;3.60;;;14.70;99.90;;;;;;5096899;28;20484;-61
2023/09/28 06:14:45;;;;;;;7.07;3.60;;;14.80;99.90;;;;;;5100127;28;20519;-65
2023/09/28 06:17:11;;;;;;;5.90;3.40;;;14.80;99.90;;;;;;5089605;28;20390;-65
2023/09/28 06:19:37;;;;;;;5.90;3.65;;;14.90;99.90;;;;;;5091003;28;20032;-64
2023/09/28 06:22:05;;;;;;;10.20;3.50;;;15.00;99.90;;;;;;5086417;28;20374;-64
2023/09/28 06:24:31;;;;;;;5.07;2.85;;;15.20;99.90;;;;;;5088517;28;20020;-64
2023/09/28 06:26:56;;;;;;;4.20;3.35;;;15.40;99.90;;;;;;5089560;28;20023;-64
2023/09/28 06:29:22;;;;;;;7.57;2.92;;;15.50;99.90;;;;;;5096935;28;20104;-64
2023/09/28 06:31:47;;;;;;;4.53;3.15;;;15.70;99.90;;;;;;5091323;28;20665;-64
2023/09/28 06:34:13;;;;;;;6.05;3.42;;;15.90;99.90;;;;;;5087979;28;20405;-66
2023/09/28 06:36:38;;;;;;;5.32;3.50;;;16.10;99.90;;;;;;5089186;28;20400;-64
2023/09/28 06:39:04;;;;;;;5.05;3.10;;;16.30;99.90;;;;;;5091168;28;20031;-64
2023/09/28 06:41:30;;;;;;;5.65;3.00;;;16.40;99.90;;;;;;5096142;28;20496;-63
2023/09/28 06:43:56;;;;;;;5.18;3.33;;;16.60;99.90;;;;;;5080680;28;20058;-64
2023/09/28 06:46:22;;;;;;;3.05;2.45;;;16.80;99.90;;;;;;5089081;28;20538;-61
2023/09/28 06:48:49;;;;;;;4.72;2.45;;;17.20;99.90;;;;;;5088196;28;20031;-65
2023/09/28 06:51:15;;;;;;;3.28;2.08;;;17.80;99.90;;;;;;5092396;28;20050;-65
2023/09/28 06:53:41;;;;;;;3.83;1.90;;;18.60;99.90;;;;;;5090048;28;20062;-66
2023/09/28 06:56:07;;;;;;;2.88;2.17;;;19.40;99.90;;;;;;5083855;28;20060;-63
2023/09/28 06:58:32;;;;;;;6.13;2.40;;;20.30;99.90;;;;;;5091882;28;20791;-64
2023/09/28 07:00:58;;;;;;;8.00;2.55;;;21.20;99.90;;;;;;5089185;28;20024;-65
2023/09/28 07:03:23;;;;;;;7.30;2.67;;;21.40;99.90;;;;;;5088900;28;20504;-66
2023/09/28 07:05:49;;;;;;;3.88;2.10;;;21.10;99.90;;;;;;5090246;28;20025;-66
2023/09/28 07:08:15;;;;;;;8.93;2.17;;;20.60;99.90;;;;;;5090487;28;20020;-63
2023/09/28 07:10:41;;;;;;;3.42;2.28;;;20.00;99.90;;;;;;5088655;28;20481;-64
2023/09/28 07:13:06;;;;;;;4.28;2.50;;;19.60;99.90;;;;;;5091063;28;20027;-65
2023/09/28 07:15:33;;;;;;;5.45;2.70;;;19.30;99.90;;;;;;5091951;28;20025;-65
2023/09/28 07:18:03;;;;;;;3.88;2.28;;;19.10;99.90;;;;;;5088677;28;20402;-65
2023/09/28 07:20:29;;;;;;;3.35;2.47;;;19.00;99.90;;;;;;5089082;28;20028;-64
2023/09/28 07:22:54;;;;;;;3.33;2.42;;;19.00;99.90;;;;;;5090994;28;20099;-66
2023/09/28 07:25:20;;;;;;;5.38;2.70;;;19.10;99.90;;;;;;5020165;28;20824;-65
2023/09/28 07:27:50;;;;;;;5.57;2.63;;;19.10;99.90;;;;;;5080345;28;20533;-64
2023/09/28 07:30:19;;;;;;;4.85;3.40;;;19.10;99.90;;;;;;5069715;28;20044;-64
2023/09/28 07:32:46;;;;;;;6.30;2.80;;;19.20;99.90;;;;;;5077215;28;20089;-65
2023/09/28 07:35:13;;;;;;;8.95;3.30;;;19.10;99.90;;;;;;5058972;28;20044;-66
2023/09/28 07:37:43;;;;;;;4.15;2.78;;;19.00;99.90;;;;;;5077119;28;20028;-65
2023/09/28 07:40:12;;;;;;;6.55;2.88;;;19.00;99.90;;;;;;5058930;28;20167;-65
2023/09/28 07:42:40;;;;;;;7.13;2.90;;;19.00;99.90;;;;;;5075481;28;20032;-66
2023/09/28 07:45:06;;;;;;;3.35;2.28;;;19.10;99.90;;;;;;5074498;28;20551;-63
2023/09/28 07:47:32;;;;;;;3.65;2.28;;;19.30;99.90;;;;;;5078448;28;20036;-66
2023/09/28 07:49:58;;;;;;;5.13;2.70;;;19.50;99.90;;;;;;5075204;28;20035;-66
2023/09/28 07:52:24;;;;;;;3.20;2.25;;;19.50;99.90;;;;;;5057032;28;20055;-66
2023/09/28 07:54:50;;;;;;;4.13;2.20;;;19.60;99.90;;;;;;5077758;28;20036;-65
2023/09/28 07:57:15;;;;;;;6.15;2.35;;;19.80;99.90;;;;;;5075799;28;20046;-65
2023/09/28 07:59:41;;;;;;;5.95;2.53;;;19.90;99.90;;;;;;5076756;28;20024;-65
2023/09/28 08:02:09;;;;;;;8.40;2.30;;;20.10;99.90;;;;;;5074761;28;20031;-64
2023/09/28 08:04:36;;;;;;;3.33;2.00;;;20.30;99.90;;;;;;5073964;28;20031;-63
2023/09/28 08:07:01;;;;;;;4.90;2.75;;;20.50;99.90;;;;;;5073659;28;20031;-64
2023/09/28 08:09:27;;;;;;;4.25;2.40;;;20.80;99.90;;;;;;5076872;28;20024;-64
2023/09/28 08:11:53;;;;;;;4.25;2.30;;;20.90;99.90;;;;;;5075250;28;20036;-65
2023/09/28 08:14:20;;;;;;;6.03;2.30;;;21.00;99.90;;;;;;5075507;28;20016;-66
2023/09/28 08:16:46;;;;;;;4.32;2.33;;;20.90;99.90;;;;;;5073474;28;20120;-65
2023/09/28 08:19:12;;;;;;;3.42;2.00;;;21.00;99.90;;;;;;5075308;28;20112;-64
2023/09/28 08:21:38;;;;;;;3.35;2.22;;;21.30;99.90;;;;;;5072716;28;20675;-63
2023/09/28 08:24:08;;;;;;;4.13;2.20;;;21.60;99.90;;;;;;5078378;28;20428;-64
2023/09/28 08:26:37;;;;;;;6.07;2.38;;;21.60;99.90;;;;;;5063697;28;20036;-64
2023/09/28 08:29:04;;;;;;;4.10;2.40;;;21.30;99.90;;;;;;5074958;28;20102;-66
2023/09/28 08:31:31;;;;;;;6.45;2.47;;;21.40;99.90;;;;;;5072460;28;20040;-64
2023/09/28 08:34:00;;;;;;;3.47;1.98;;;21.30;99.90;;;;;;5074483;28;20017;-65
2023/09/28 08:36:27;;;;;;;6.75;2.58;;;21.20;99.90;;;;;;5074425;28;20032;-61
2023/09/28 08:38:53;;;;;;;3.80;2.20;;;21.30;99.90;;;;;;5076652;28;20028;-65
2023/09/28 08:41:43;;;;;;;4.60;2.55;;;21.10;99.90;;;;;;5077593;28;20107;-64
2023/09/28 08:44:10;;;;;;;5.40;2.70;;;21.10;99.90;;;;;;5060792;28;20115;-64
2023/09/28 08:46:39;;;;;;;4.97;2.17;;;21.20;99.90;;;;;;5060601;28;20028;-65
2023/09/28 08:49:07;;;;;;;5.22;2.58;;;21.10;99.90;;;;;;5079436;28;20458;-64
2023/09/28 08:51:35;;;;;;;3.65;1.80;;;21.20;99.90;;;;;;5078911;28;20059;-65
2023/09/28 08:54:05;;;;;;;6.32;2.40;;;21.50;99.90;;;;;;5078946;28;20124;-66
2023/09/28 08:56:39;;;;;;;3.88;2.15;;;21.70;99.90;;;;;;5078700;28;20028;-65
2023/09/28 08:59:05;;;;;;;5.90;2.30;;;22.30;99.90;;;;;;5078289;28;20032;-64
2023/09/28 09:01:32;;;;;;;8.30;2.65;;;22.80;99.90;;;;;;5078567;28;20513;-65
2023/09/28 09:03:59;;;;;;;5.53;2.45;;;23.20;99.90;;;;;;5077026;28;20036;-64
2023/09/28 09:06:28;;;;;;;8.18;3.13;;;23.70;99.90;;;;;;5077742;28;20024;-65
2023/09/28 09:08:57;;;;;;;5.60;2.70;;;24.20;99.90;;;;;;5081456;28;20485;-65
2023/09/28 09:11:24;;;;;;;8.35;2.83;;;24.40;99.90;;;;;;5079038;28;20036;-66
2023/09/28 09:13:50;;;;;;;5.80;2.33;;;24.80;99.90;;;;;;5079100;28;20127;-67
2023/09/28 09:16:16;;;;;;;7.40;2.80;;;25.20;99.90;;;;;;5074318;28;20035;-66
2023/09/28 09:18:42;;;;;;;8.57;3.10;;;25.20;99.90;;;;;;5075239;28;20031;-67
2023/09/28 09:21:08;;;;;;;5.18;2.83;;;25.10;99.90;;;;;;5060739;28;20082;-64
2023/09/28 09:23:33;;;;;;;4.93;2.60;;;25.00;99.90;;;;;;5075493;28;20025;-66
2023/09/28 09:25:59;;;;;;;9.70;2.85;;;25.10;99.90;;;;;;5077257;28;20016;-64
2023/09/28 09:28:34;;;;;;;7.70;3.40;;;24.80;99.90;;;;;;5076465;28;20569;-65
2023/09/28 09:31:01;;;;;;;6.20;2.95;;;25.00;99.90;;;;;;5078567;28;20028;-66
2023/09/28 09:33:28;;;;;;;5.32;2.97;;;25.20;99.90;;;;;;5061571;28;20115;-65
2023/09/28 09:35:54;;;;;;;7.28;2.60;;;25.30;99.90;;;;;;5061720;28;20117;-63
2023/09/28 09:38:37;;;;;;;5.00;2.85;;;25.40;99.90;;;;;;5061934;28;20064;-67
2023/09/28 09:41:07;;;;;;;6.93;3.28;;;25.20;99.90;;;;;;5078584;28;20167;-67
2023/09/28 09:43:36;;;;;;;8.00;2.92;;;25.00;99.90;;;;;;5078012;28;20024;-66
2023/09/28 09:46:06;;;;;;;9.13;2.80;;;24.70;99.90;;;;;;5058824;28;20450;-65
2023/09/28 09:48:42;;;;;;;4.93;2.80;;;24.70;99.90;;;;;;5075248;28;20025;-65
2023/09/28 09:51:13;;;;;;;7.80;2.95;;;24.70;99.90;;;;;;5076751;28;20028;-66
2023/09/28 09:53:40;;;;;;;6.97;2.63;;;24.50;99.90;;;;;;5077971;28;20085;-66
2023/09/28 09:56:07;;;;;;;6.32;3.20;;;24.70;99.90;;;;;;5080277;27;20039;-66
2023/09/28 09:58:39;;;;;;;10.55;3.33;;;24.80;99.90;;;;;;5075160;28;20533;-63
2023/09/28 10:01:12;;;;;;;13.88;2.88;;;24.90;99.90;;;;;;5052245;28;20032;-65
2023/09/28 10:03:42;;;;;;;6.20;2.83;;;24.80;99.90;;;;;;5075473;28;20126;-67
2023/09/28 10:06:09;;;;;;;8.57;3.42;;;24.80;99.90;;;;;;5078573;28;21190;-67
2023/09/28 10:08:35;;;;;;;7.35;3.30;;;24.80;99.90;;;;;;5075443;28;20112;-65
2023/09/28 10:11:04;;;;;;;7.10;3.13;;;25.00;99.90;;;;;;5078306;28;20099;-65
2023/09/28 10:13:31;;;;;;;6.90;2.92;;;24.80;99.90;;;;;;5074583;28;20028;-63
2023/09/28 10:16:02;;;;;;;5.30;2.72;;;24.50;99.90;;;;;;5074603;28;20036;-63
2023/09/28 10:18:30;;;;;;;9.98;3.25;;;24.60;99.90;;;;;;5073575;28;20143;-64
2023/09/28 10:20:58;;;;;;;12.18;3.55;;;24.60;99.90;;;;;;5075287;28;20024;-66
2023/09/28 10:23:26;;;;;;;6.50;3.75;;;24.40;99.90;;;;;;5075723;28;20033;-65
2023/09/28 10:26:12;;;;;;;8.35;3.97;;;24.20;99.90;;;;;;5074312;28;20028;-63
2023/09/28 10:29:03;;;;;;;8.50;3.53;;;24.10;99.90;;;;;;5074992;28;20036;-65
2023/09/28 10:31:30;;;;;;;8.95;4.05;;;24.30;99.90;;;;;;5072346;28;20119;-66
2023/09/28 10:34:00;;;;;;;9.13;3.83;;;24.80;99.90;;;;;;5058351;28;20402;-66
2023/09/28 10:36:28;;;;;;;11.27;3.40;;;24.80;99.90;;;;;;5076699;28;20821;-66
2023/09/28 10:39:14;;;;;;;10.18;4.30;;;24.80;99.90;;;;;;5075986;28;20032;-64
2023/09/28 10:41:49;;;;;;;8.07;4.30;;;24.80;99.90;;;;;;5077305;28;20032;-66
2023/09/28 10:44:19;;;;;;;14.45;4.63;;;24.60;99.90;;;;;;5076408;28;20414;-65
2023/09/28 10:46:47;;;;;;;11.30;3.78;;;24.50;99.90;;;;;;5075230;28;20048;-64
2023/09/28 10:49:15;;;;;;;7.78;3.50;;;24.80;99.90;;;;;;5061034;28;20036;-65
2023/09/28 10:51:41;;;;;;;7.97;4.10;;;24.80;99.90;;;;;;5061120;28;20039;-65
2023/09/28 10:54:08;;;;;;;7.93;3.70;;;25.10;99.90;;;;;;5077191;28;20106;-65
2023/09/28 10:56:34;;;;;;;7.35;3.38;;;25.20;99.90;;;;;;5078025;28;20063;-65
2023/09/28 10:59:02;;;;;;;8.93;4.20;;;25.20;99.90;;;;;;5079493;28;20032;-66
2023/09/28 11:01:28;;;;;;;8.75;3.38;;;25.00;99.90;;;;;;5074539;28;20024;-65
2023/09/28 11:03:54;;;;;;;6.78;3.05;;;25.00;99.90;;;;;;5078893;28;20029;-65
2023/09/28 11:06:21;;;;;;;7.90;3.85;;;24.90;99.90;;;;;;5078411;28;20493;-64
2023/09/28 11:08:49;;;;;;;10.00;4.32;;;24.80;99.90;;;;;;5075836;28;20024;-65
2023/09/28 11:11:17;;;;;;;7.13;4.20;;;24.80;99.90;;;;;;5075442;28;20059;-65
2023/09/28 11:13:43;;;;;;;9.13;4.40;;;24.70;99.90;;;;;;5076432;28;20048;-66
2023/09/28 11:16:11;;;;;;;12.50;4.35;;;24.70;99.90;;;;;;5058684;28;20033;-63
2023/09/28 11:18:37;;;;;;;7.82;3.75;;;24.70;99.90;;;;;;5075717;28;20031;-65
2023/09/28 11:21:03;;;;;;;9.40;4.30;;;24.40;99.90;;;;;;5074819;28;20032;-66
2023/09/28 11:23:29;;;;;;;9.65;4.25;;;23.80;99.90;;;;;;5075888;28;20039;-65
2023/09/28 11:25:55;;;;;;;11.57;4.30;;;23.50;99.90;;;;;;5060142;28;20012;-59
2023/09/28 11:28:25;;;;;;;10.02;3.97;;;23.50;99.90;;;;;;5076428;28;20020;-67
2023/09/28 11:31:08;;;;;;;7.85;3.53;;;23.50;99.90;;;;;;5076037;28;20035;-66
2023/09/28 11:33:34;;;;;;;7.15;3.80;;;23.30;99.90;;;;;;5076974;28;20650;-65
2023/09/28 11:36:01;;;;;;;9.68;3.88;;;23.00;99.90;;;;;;5076038;28;20027;-66
2023/09/28 11:38:27;;;;;;;6.20;3.80;;;23.00;99.90;;;;;;5075329;28;20028;-64
2023/09/28 11:40:55;;;;;;;8.77;4.63;;;22.90;99.90;;;;;;5074679;28;20481;-65
2023/09/28 11:43:21;;;;;;;11.13;4.55;;;22.90;99.90;;;;;;5076337;28;20403;-67
2023/09/28 11:45:48;;;;;;;7.80;4.07;;;22.90;99.90;;;;;;5075428;28;20020;-65
2023/09/28 11:48:21;;;;;;;13.10;4.05;;;22.80;99.90;;;;;;5077571;28;20061;-66
2023/09/28 11:50:47;;;;;;;7.95;3.97;;;22.80;99.90;;;;;;5074874;28;20043;-65
2023/09/28 11:53:14;;;;;;;7.03;3.40;;;22.70;99.90;;;;;;5077144;28;20029;-66
2023/09/28 11:55:41;;;;;;;8.55;3.50;;;22.70;99.90;;;;;;5076783;28;20433;-65
2023/09/28 11:58:09;;;;;;;10.05;4.07;;;22.80;99.90;;;;;;5074563;28;20097;-65
2023/09/28 12:00:36;;;;;;;6.82;4.00;;;22.90;99.90;;;;;;5047437;28;20047;-62
2023/09/28 12:03:03;;;;;;;12.68;4.10;;;22.80;99.90;;;;;;5073128;28;20035;-65
2023/09/28 12:05:31;;;;;;;10.85;4.85;;;22.80;99.90;;;;;;5078278;28;20735;-66
2023/09/28 12:07:56;;;;;;;12.77;4.55;;;22.80;99.90;;;;;;5075810;28;20040;-65
2023/09/28 12:10:23;;;;;;;13.13;4.88;;;22.80;99.90;;;;;;5076455;28;21202;-65
2023/09/28 12:12:49;;;;;;;8.25;4.57;;;22.80;99.90;;;;;;5077114;28;20035;-65
2023/09/28 12:15:14;;;;;;;9.80;4.68;;;23.00;99.90;;;;;;5074036;28;20024;-65
2023/09/28 12:17:41;;;;;;;9.52;4.20;;;23.10;99.90;;;;;;5076369;28;20028;-65
2023/09/28 12:20:09;;;;;;;11.13;4.25;;;23.20;99.90;;;;;;5076001;28;20046;-66
2023/09/28 12:22:35;;;;;;;10.57;4.47;;;23.20;99.90;;;;;;5076658;28;20020;-65
2023/09/28 12:25:01;;;;;;;6.78;3.80;;;23.60;99.90;;;;;;5074958;28;20032;-65
2023/09/28 12:27:30;;;;;;;10.35;4.15;;;23.80;99.90;;;;;;5075700;28;20035;-64
2023/09/28 12:29:55;;;;;;;9.88;4.25;;;24.00;99.90;;;;;;5075004;28;20028;-65
2023/09/28 12:32:21;;;;;;;7.75;3.63;;;24.00;99.90;;;;;;5071487;28;20086;-63
2023/09/28 12:34:47;;;;;;;17.40;4.63;;;24.20;99.90;;;;;;5074873;28;20039;-65
2023/09/28 12:37:13;;;;;;;11.60;4.50;;;24.30;99.90;;;;;;5074187;28;20172;-64
2023/09/28 12:39:39;;;;;;;9.32;4.40;;;24.20;99.90;;;;;;5075871;28;20489;-65
2023/09/28 12:42:04;;;;;;;6.28;3.72;;;23.90;99.90;;;;;;5074942;28;20125;-61
2023/09/28 12:44:30;;;;;;;6.57;3.33;;;23.80;99.90;;;;;;5077090;28;20028;-60
2023/09/28 12:46:56;;;;;;;7.85;3.92;;;23.70;99.90;;;;;;5074796;28;20104;-64